createdAt,value
2022-08-18T00:02:43.677Z,53.42
2022-08-18T00:05:46.415Z,53.37
2022-08-18T00:08:38.450Z,53.37
2022-08-18T00:11:24.424Z,53.34
2022-08-18T00:14:21.469Z,53.29
2022-08-18T00:17:07.260Z,53.43
2022-08-18T00:19:52.399Z,53.54
2022-08-18T00:22:39.889Z,53.88
2022-08-18T00:25:28.275Z,53.87
2022-08-18T00:28:14.010Z,53.82
2022-08-18T00:30:59.944Z,53.71
2022-08-18T00:33:45.030Z,53.32
2022-08-18T00:36:32.388Z,53.42
2022-08-18T00:39:17.957Z,53.40
2022-08-18T00:42:27.292Z,53.17
2022-08-18T00:45:20.867Z,53.05
2022-08-18T00:48:09.022Z,53.20
2022-08-18T00:50:58.084Z,53.45
2022-08-18T00:53:49.496Z,53.35
2022-08-18T00:56:43.850Z,53.13
2022-08-18T00:59:42.425Z,53.29
2022-08-18T01:02:35.761Z,52.99
2022-08-18T01:05:28.155Z,53.17
2022-08-18T01:08:15.709Z,52.88
2022-08-18T01:11:02.838Z,52.75
2022-08-18T01:13:48.320Z,53.05
2022-08-18T01:16:56.938Z,52.93
2022-08-18T01:20:01.867Z,52.74
2022-08-18T01:22:49.954Z,52.56
2022-08-18T01:25:56.549Z,52.53
2022-08-18T01:28:44.581Z,52.62
2022-08-18T01:31:39.936Z,52.68
2022-08-18T01:34:39.447Z,52.67
2022-08-18T01:37:25.327Z,52.76
2022-08-18T01:41:11.080Z,52.83
2022-08-18T01:43:19.123Z,52.77
2022-08-18T01:46:05.617Z,52.75
2022-08-18T01:48:51.342Z,52.70
2022-08-18T01:51:41.293Z,52.31
2022-08-18T01:54:30.094Z,52.43
2022-08-18T01:57:16.633Z,52.62
2022-08-18T02:00:02.045Z,52.72
2022-08-18T02:03:01.946Z,52.86
2022-08-18T02:05:50.565Z,53.08
2022-08-18T02:08:37.137Z,53.04
2022-08-18T02:11:22.224Z,53.40
2022-08-18T02:14:07.430Z,53.59
2022-08-18T02:16:52.864Z,53.79
2022-08-18T02:19:46.177Z,54.01
2022-08-18T02:22:31.493Z,54.13
2022-08-18T02:25:18.016Z,54.15
2022-08-18T02:28:04.642Z,54.19
2022-08-18T02:30:50.095Z,54.33
2022-08-18T02:33:36.085Z,54.47
2022-08-18T02:36:25.513Z,54.67
2022-08-18T02:39:11.734Z,54.71
2022-08-18T02:41:57.538Z,54.97
2022-08-18T02:44:43.337Z,54.93
2022-08-18T02:47:33.433Z,55.04
2022-08-18T02:50:19.289Z,55.02
2022-08-18T02:53:04.763Z,55.21
2022-08-18T02:55:50.487Z,55.29
2022-08-18T02:58:36.339Z,55.43
2022-08-18T03:01:23.476Z,55.42
2022-08-18T03:04:23.003Z,55.49
2022-08-18T03:07:10.671Z,55.33
2022-08-18T03:09:55.852Z,55.39
2022-08-18T03:12:44.246Z,55.24
2022-08-18T03:15:29.779Z,55.44
2022-08-18T03:18:15.011Z,55.63
2022-08-18T03:21:18.485Z,55.73
2022-08-18T03:24:09.274Z,56.22
2022-08-18T03:26:57.221Z,56.13
2022-08-18T03:29:42.462Z,56.43
2022-08-18T03:32:27.707Z,56.36
2022-08-18T03:35:14.642Z,56.31
2022-08-18T03:38:00.412Z,56.53
2022-08-18T03:40:53.649Z,56.73
2022-08-18T03:43:51.424Z,56.75
2022-08-18T03:46:37.501Z,56.64
2022-08-18T03:49:23.319Z,56.52
2022-08-18T03:52:09.863Z,56.73
2022-08-18T03:54:55.382Z,56.85
2022-08-18T03:57:41.160Z,56.97
2022-08-18T04:00:29.901Z,57.09
2022-08-18T04:03:15.328Z,57.15
2022-08-18T04:06:00.891Z,57.33
2022-08-18T04:08:46.572Z,57.31
2022-08-18T04:11:35.789Z,57.20
2022-08-18T04:14:24.939Z,57.27
2022-08-18T04:17:10.710Z,57.27
2022-08-18T04:19:56.877Z,57.25
2022-08-18T04:22:42.728Z,57.25
2022-08-18T04:25:32.579Z,57.08
2022-08-18T04:28:18.273Z,57.15
2022-08-18T04:31:13.485Z,57.00
2022-08-18T04:34:00.614Z,56.89
2022-08-18T04:36:46.763Z,56.78
2022-08-18T04:39:32.327Z,56.63
2022-08-18T04:42:17.691Z,56.76
2022-08-18T04:45:04.364Z,56.76
2022-08-18T04:47:51.598Z,56.55
2022-08-18T04:50:39.280Z,56.53
2022-08-18T04:53:43.367Z,56.60
2022-08-18T04:56:33.525Z,56.27
2022-08-18T04:59:19.221Z,56.10
2022-08-18T05:02:11.491Z,56.05
2022-08-18T05:05:27.544Z,55.64
2022-08-18T05:08:12.989Z,55.72
2022-08-18T05:11:03.728Z,55.65
2022-08-18T05:13:51.386Z,55.60
2022-08-18T05:16:47.872Z,55.53
2022-08-18T05:19:35.819Z,55.44
2022-08-18T05:22:30.597Z,55.68
2022-08-18T05:25:16.239Z,55.66
2022-08-18T05:28:01.819Z,55.68
2022-08-18T05:30:47.188Z,55.61
2022-08-18T05:33:32.310Z,55.59
2022-08-18T05:36:51.809Z,55.83
2022-08-18T05:39:53.163Z,55.19
2022-08-18T05:42:40.486Z,54.84
2022-08-18T05:45:26.999Z,55.00
2022-08-18T05:48:14.056Z,54.42
2022-08-18T05:51:08.519Z,54.39
2022-08-18T05:54:13.280Z,54.31
2022-08-18T05:57:03.555Z,54.44
2022-08-18T05:59:52.282Z,54.30
2022-08-18T06:02:45.834Z,53.94
2022-08-18T06:05:34.792Z,53.74
2022-08-18T06:08:25.602Z,53.36
2022-08-18T06:11:17.126Z,52.89
2022-08-18T06:14:07.533Z,52.13
2022-08-18T06:17:15.547Z,51.51
2022-08-18T06:20:14.312Z,51.90
2022-08-18T06:23:04.603Z,51.94
2022-08-18T06:26:16.943Z,51.54
2022-08-18T06:29:25.013Z,51.03
2022-08-18T06:32:28.187Z,50.61
2022-08-18T06:35:34.561Z,50.50
2022-08-18T06:38:50.350Z,50.25
2022-08-18T06:41:43.031Z,50.40
2022-08-18T06:44:34.526Z,50.43
2022-08-18T06:47:23.104Z,50.56
2022-08-18T06:50:30.787Z,50.01
2022-08-18T06:53:26.843Z,50.02
2022-08-18T06:56:27.063Z,50.01
2022-08-18T06:59:18.529Z,49.86
2022-08-18T07:02:26.144Z,49.89
2022-08-18T07:05:14.287Z,49.78
2022-08-18T07:08:35.823Z,49.29
2022-08-18T07:11:26.560Z,49.58
2022-08-18T07:14:16.363Z,49.53
2022-08-18T07:17:12.192Z,49.16
2022-08-18T07:20:24.300Z,48.62
2022-08-18T07:23:24.126Z,49.77
2022-08-18T07:26:15.226Z,49.64
2022-08-18T07:29:14.289Z,49.18
2022-08-18T07:32:04.488Z,49.15
2022-08-18T07:34:55.211Z,48.96
2022-08-18T07:37:48.790Z,48.98
2022-08-18T07:40:51.539Z,48.96
2022-08-18T07:43:51.906Z,48.36
2022-08-18T07:47:04.694Z,48.71
2022-08-18T07:50:15.648Z,48.52
2022-08-18T07:53:26.843Z,47.92
2022-08-18T07:56:23.497Z,47.86
2022-08-18T07:59:12.179Z,47.79
2022-08-18T08:02:18.075Z,47.30
2022-08-18T08:05:10.542Z,46.42
2022-08-18T08:08:00.457Z,46.91
2022-08-18T08:11:06.717Z,46.41
2022-08-18T08:14:32.943Z,46.26
2022-08-18T08:17:24.560Z,46.73
2022-08-18T08:20:33.241Z,46.28
2022-08-18T08:23:51.022Z,46.31
2022-08-18T08:26:52.691Z,46.72
2022-08-18T08:29:53.596Z,46.14
2022-08-18T08:33:18.107Z,46.69
2022-08-18T08:36:10.588Z,47.17
2022-08-18T08:39:07.836Z,45.98
2022-08-18T08:42:30.761Z,45.38
2022-08-18T08:45:12.065Z,44.93
2022-08-18T08:48:14.474Z,44.69
2022-08-18T08:51:36.702Z,45.73
2022-08-18T08:54:43.998Z,46.17
2022-08-18T08:57:47.278Z,46.07
2022-08-18T09:00:33.443Z,47.16
2022-08-18T09:03:34.437Z,47.70
2022-08-18T09:06:30.280Z,48.52
2022-08-18T09:10:03.432Z,48.55
2022-08-18T09:13:09.771Z,48.73
2022-08-18T09:16:17.462Z,48.39
2022-08-18T09:19:27.772Z,48.00
2022-08-18T09:22:48.651Z,47.86
2022-08-18T09:25:43.609Z,47.39
2022-08-18T09:28:29.152Z,47.49
2022-08-18T09:31:19.595Z,46.71
2022-08-18T09:34:45.308Z,47.58
2022-08-18T09:38:12.749Z,46.42
2022-08-18T09:41:29.223Z,45.29
2022-08-18T09:44:48.676Z,44.79
2022-08-18T09:47:34.921Z,44.66
2022-08-18T09:50:30.264Z,44.65
2022-08-18T09:53:37.900Z,44.60
2022-08-18T09:56:54.527Z,44.49
2022-08-18T09:59:44.344Z,44.12
2022-08-18T10:02:29.681Z,44.07
2022-08-18T10:05:15.443Z,43.98
2022-08-18T10:08:03.927Z,44.03
2022-08-18T10:11:00.137Z,43.41
2022-08-18T10:14:19.934Z,43.03
2022-08-18T10:17:37.820Z,41.87
2022-08-18T10:20:42.647Z,42.66
2022-08-18T10:27:49.163Z,42.78
2022-08-18T10:30:36.483Z,42.55
2022-08-18T10:33:57.708Z,41.48
2022-08-18T10:36:53.297Z,40.55
2022-08-18T10:39:41.160Z,41.00
2022-08-18T10:42:32.460Z,40.47
2022-08-18T10:45:24.532Z,40.53
2022-08-18T10:48:26.646Z,39.23
2022-08-18T10:51:59.874Z,39.20
2022-08-18T10:55:00.673Z,38.86
2022-08-18T10:58:02.307Z,39.09
2022-08-18T11:01:06.934Z,39.02
2022-08-18T11:04:13.742Z,38.77
2022-08-18T11:07:34.179Z,39.65
2022-08-18T11:10:57.903Z,39.53
2022-08-18T11:14:20.727Z,39.35
2022-08-18T11:17:27.941Z,39.96
2022-08-18T11:20:18.275Z,39.28
2022-08-18T11:23:04.505Z,38.67
2022-08-18T11:25:49.987Z,37.46
2022-08-18T11:28:39.013Z,36.30
2022-08-18T11:31:30.901Z,36.14
2022-08-18T11:38:00.071Z,35.20
2022-08-18T11:41:09.717Z,36.33
2022-08-18T11:44:00.182Z,36.52
2022-08-18T11:46:51.715Z,37.91
2022-08-18T11:49:46.089Z,37.71
2022-08-18T11:52:34.789Z,36.04
2022-08-18T11:55:37.084Z,37.02
2022-08-18T11:58:41.550Z,35.97
2022-08-18T12:01:51.296Z,36.03
2022-08-18T12:04:42.564Z,35.73
2022-08-18T12:07:35.331Z,35.72
2022-08-18T12:10:30.544Z,35.90
2022-08-18T12:13:24.429Z,35.19
2022-08-18T12:17:38.866Z,34.68
2022-08-18T12:20:09.296Z,34.11
2022-08-18T12:22:57.655Z,33.48
2022-08-18T12:25:43.296Z,33.66
2022-08-18T12:28:28.636Z,33.22
2022-08-18T12:31:15.102Z,33.06
2022-08-18T12:34:02.729Z,32.67
2022-08-18T12:36:47.961Z,33.41
2022-08-18T12:39:33.424Z,32.73
2022-08-18T12:42:20.481Z,33.08
2022-08-18T12:45:07.254Z,34.11
2022-08-18T12:47:54.393Z,32.98
2022-08-18T12:50:49.992Z,32.84
2022-08-18T12:57:00.887Z,33.52
2022-08-18T12:59:46.430Z,33.65
2022-08-18T13:02:32.348Z,33.30
2022-08-18T13:05:26.214Z,33.99
2022-08-18T13:08:30.182Z,33.65
2022-08-18T13:11:23.786Z,33.24
2022-08-18T13:14:10.682Z,32.79
2022-08-18T13:16:56.177Z,33.10
2022-08-18T13:19:42.520Z,33.57
2022-08-18T13:22:31.960Z,33.76
2022-08-18T13:25:32.199Z,33.17
2022-08-18T13:28:26.849Z,33.14
2022-08-18T13:31:16.136Z,33.24
2022-08-18T13:34:04.084Z,33.42
2022-08-18T13:36:50.561Z,33.95
2022-08-18T13:39:36.045Z,33.88
2022-08-18T13:42:29.305Z,33.34
2022-08-18T13:45:25.675Z,32.61
2022-08-18T13:48:11.555Z,32.97
2022-08-18T13:53:17.156Z,32.51
2022-08-18T13:55:31.488Z,32.11
2022-08-18T13:58:20.830Z,32.68
2022-08-18T14:01:41.991Z,32.22
2022-08-18T14:04:15.073Z,32.22
2022-08-18T14:07:10.423Z,31.82
2022-08-18T14:09:56.977Z,31.88
2022-08-18T14:12:42.409Z,32.09
2022-08-18T14:15:28.148Z,31.78
2022-08-18T14:18:16.184Z,31.70
2022-08-18T14:21:23.277Z,31.69
2022-08-18T14:24:27.639Z,31.63
2022-08-18T14:27:14.164Z,32.23
2022-08-18T14:30:13.846Z,31.84
2022-08-18T14:32:59.772Z,32.40
2022-08-18T14:36:06.498Z,32.44
2022-08-18T14:38:51.611Z,34.24
2022-08-18T14:41:40.879Z,31.81
2022-08-18T14:44:34.995Z,32.03
2022-08-18T14:47:24.224Z,33.21
2022-08-18T14:50:12.866Z,32.87
2022-08-18T14:53:01.639Z,32.75
2022-08-18T14:55:52.665Z,32.89
2022-08-18T14:58:41.012Z,33.75
2022-08-18T15:01:27.948Z,34.01
2022-08-18T15:04:21.158Z,34.87
2022-08-18T15:07:10.103Z,35.70
2022-08-18T15:10:14.979Z,35.98
2022-08-18T15:13:02.300Z,36.49
2022-08-18T15:15:51.864Z,36.79
2022-08-18T15:18:38.149Z,36.93
2022-08-18T15:21:42.371Z,37.38
2022-08-18T15:24:46.276Z,37.49
2022-08-18T15:27:42.830Z,37.43
2022-08-18T15:30:29.115Z,37.42
2022-08-18T15:33:16.065Z,37.90
2022-08-18T15:36:09.743Z,37.73
2022-08-18T15:38:56.703Z,37.52
2022-08-18T15:41:48.867Z,37.97
2022-08-18T15:44:35.006Z,37.35
2022-08-18T15:47:21.326Z,37.22
2022-08-18T15:50:22.443Z,37.27
2022-08-18T15:53:12.627Z,36.93
2022-08-18T15:56:04.170Z,37.08
2022-08-18T15:58:50.953Z,37.16
2022-08-18T16:01:39.595Z,36.45
2022-08-18T16:04:27.661Z,36.76
2022-08-18T16:07:14.791Z,37.25
2022-08-18T16:10:04.233Z,37.35
2022-08-18T16:12:49.779Z,37.21
2022-08-18T16:15:38.675Z,37.44
2022-08-18T16:18:27.346Z,37.17
2022-08-18T16:21:16.438Z,36.85
2022-08-18T16:24:01.681Z,37.51
2022-08-18T16:26:46.812Z,38.90
2022-08-18T16:29:33.259Z,38.41
2022-08-18T16:32:18.904Z,38.29
2022-08-18T16:35:05.073Z,39.96
2022-08-18T16:37:50.837Z,41.54
2022-08-18T16:40:37.493Z,42.11
2022-08-18T16:43:22.681Z,43.77
2022-08-18T16:46:23.215Z,49.45
2022-08-18T16:49:09.733Z,46.50
2022-08-18T16:51:55.163Z,47.91
2022-08-18T16:54:40.384Z,48.87
2022-08-18T16:57:55.579Z,49.81
2022-08-18T17:00:59.819Z,50.77
2022-08-18T17:04:03.449Z,52.59
2022-08-18T17:06:49.313Z,55.27
2022-08-18T17:09:35.073Z,57.55
2022-08-18T17:12:20.516Z,59.63
2022-08-18T17:15:06.819Z,60.37
2022-08-18T17:17:52.660Z,61.00
2022-08-18T17:20:37.946Z,60.72
2022-08-18T17:23:23.119Z,62.53
2022-08-18T17:26:22.041Z,62.88
2022-08-18T17:29:15.836Z,63.42
2022-08-18T17:32:15.433Z,64.08
2022-08-18T17:35:08.005Z,64.80
2022-08-18T17:38:02.305Z,64.90
2022-08-18T17:40:54.403Z,65.33
2022-08-18T17:46:38.094Z,63.40
2022-08-18T17:49:54.406Z,63.06
2022-08-18T17:53:01.433Z,63.20
2022-08-18T17:56:09.969Z,62.74
2022-08-18T17:59:04.862Z,62.72
2022-08-18T18:02:30.615Z,62.58
2022-08-18T18:05:21.031Z,61.68
2022-08-18T18:08:17.410Z,61.08
2022-08-18T18:11:11.262Z,60.84
2022-08-18T18:14:30.299Z,62.33
2022-08-18T18:17:29.344Z,63.10
2022-08-18T18:20:43.712Z,62.78
2022-08-18T18:23:41.344Z,62.53
2022-08-18T18:26:28.679Z,61.91
2022-08-18T18:29:20.089Z,62.06
2022-08-18T18:32:22.587Z,62.89
2022-08-18T18:35:19.439Z,64.46
2022-08-18T18:38:23.673Z,65.82
2022-08-18T18:41:12.068Z,66.60
2022-08-18T18:44:09.844Z,65.75
2022-08-18T18:47:16.358Z,66.69
2022-08-18T18:50:12.563Z,66.51
2022-08-18T18:53:02.235Z,66.80
2022-08-18T18:56:19.869Z,66.23
2022-08-18T18:59:23.607Z,66.29
2022-08-18T19:02:33.543Z,66.80
2022-08-18T19:05:35.202Z,65.96
2022-08-18T19:08:24.020Z,66.32
2022-08-18T19:11:15.943Z,67.06
2022-08-18T19:14:22.120Z,66.10
2022-08-18T19:17:23.014Z,67.04
2022-08-18T19:20:31.845Z,67.91
2022-08-18T19:23:44.512Z,67.17
2022-08-18T19:26:39.935Z,67.18
2022-08-18T19:29:45.946Z,67.14
2022-08-18T19:32:36.666Z,67.29
2022-08-18T19:35:35.211Z,67.86
2022-08-18T19:38:58.979Z,67.56
2022-08-18T19:41:55.369Z,67.89
2022-08-18T19:45:14.905Z,67.83
2022-08-18T19:48:37.463Z,66.91
2022-08-18T19:51:35.685Z,66.96
2022-08-18T19:54:30.993Z,66.55
2022-08-18T19:57:23.318Z,67.72
2022-08-18T20:00:21.668Z,70.65
2022-08-18T20:03:19.583Z,73.02
2022-08-18T20:06:32.084Z,73.43
2022-08-18T20:09:35.649Z,72.41
2022-08-18T20:12:45.414Z,71.54
2022-08-18T20:15:34.782Z,73.24
2022-08-18T20:18:23.268Z,73.24
2022-08-18T20:21:14.879Z,73.67
2022-08-18T20:24:18.241Z,74.35
2022-08-18T20:27:36.066Z,74.11
2022-08-18T20:30:33.864Z,73.64
2022-08-18T20:33:25.916Z,74.24
2022-08-18T20:36:28.601Z,73.68
2022-08-18T20:39:46.139Z,72.89
2022-08-18T20:42:57.396Z,72.70
2022-08-18T20:46:06.782Z,72.33
2022-08-18T20:49:07.554Z,73.65
2022-08-18T20:52:04.078Z,73.69
2022-08-18T20:55:03.050Z,74.35
2022-08-18T20:58:03.540Z,75.67
2022-08-18T21:00:58.212Z,77.63
2022-08-18T21:03:51.178Z,76.58
2022-08-18T21:06:44.465Z,78.97
2022-08-18T21:09:33.675Z,82.08
2022-08-18T21:12:30.271Z,86.30
2022-08-18T21:15:15.899Z,90.46
2022-08-18T21:18:04.524Z,93.34
2022-08-18T21:20:52.806Z,95.85
2022-08-18T21:23:41.157Z,99.54
2022-08-18T21:26:29.234Z,99.95
2022-08-18T21:29:15.633Z,100.00
2022-08-18T21:32:12.941Z,100.00
2022-08-18T21:35:05.907Z,100.00
2022-08-18T21:38:03.964Z,100.00
2022-08-18T21:40:50.118Z,100.00
2022-08-18T21:43:49.021Z,100.00
2022-08-18T21:46:38.994Z,100.00
2022-08-18T21:49:27.584Z,97.76
2022-08-18T21:52:24.011Z,98.42
2022-08-18T21:55:25.140Z,97.17
2022-08-18T21:58:19.478Z,98.15
2022-08-18T22:01:30.150Z,96.52
2022-08-18T22:04:30.095Z,95.43
2022-08-18T22:07:34.492Z,96.53
2022-08-18T22:10:48.333Z,95.52
2022-08-18T22:13:59.250Z,96.01
2022-08-18T22:16:45.997Z,94.80
2022-08-18T22:19:31.652Z,93.71
2022-08-18T22:22:38.104Z,93.31
2022-08-18T22:25:23.824Z,93.42
2022-08-18T22:28:09.138Z,93.16
2022-08-18T22:30:54.399Z,93.00
2022-08-18T22:33:40.399Z,92.92
2022-08-18T22:36:28.309Z,92.39
2022-08-18T22:39:22.561Z,92.61
2022-08-18T22:42:09.534Z,92.75
2022-08-18T22:44:57.140Z,93.23
2022-08-18T22:47:45.519Z,92.84
2022-08-18T22:50:31.190Z,92.80
2022-08-18T22:53:19.852Z,93.73
2022-08-18T22:56:05.960Z,94.25
2022-08-18T22:58:53.113Z,94.07
2022-08-18T23:01:39.590Z,94.49
2022-08-18T23:04:25.720Z,94.16
2022-08-18T23:07:12.284Z,94.41
2022-08-18T23:09:58.812Z,93.17
2022-08-18T23:12:46.983Z,93.12
2022-08-18T23:15:43.731Z,93.58
2022-08-18T23:18:32.845Z,92.93
2022-08-18T23:21:33.564Z,93.06
2022-08-18T23:24:21.859Z,92.15
2022-08-18T23:27:10.061Z,91.51
2022-08-18T23:29:55.409Z,90.15
2022-08-18T23:32:40.857Z,91.24
2022-08-18T23:35:26.432Z,92.33
2022-08-18T23:38:13.151Z,91.57
2022-08-18T23:40:58.715Z,90.30
2022-08-18T23:43:48.111Z,90.76
2022-08-18T23:46:34.008Z,91.22
2022-08-18T23:49:19.681Z,89.38
2022-08-18T23:52:05.614Z,88.82
2022-08-18T23:54:51.063Z,88.84
2022-08-18T23:57:36.674Z,89.18
